createdAt,value
2023-04-17T00:00:33.781Z,81.76
2023-04-17T00:03:37.766Z,81.54
2023-04-17T00:06:43.153Z,81.75
2023-04-17T00:09:45.701Z,82.20
2023-04-17T00:12:48.524Z,82.44
2023-04-17T00:15:51.065Z,81.84
2023-04-17T00:18:54.989Z,82.20
2023-04-17T00:21:57.568Z,81.98
2023-04-17T00:25:00.186Z,82.35
2023-04-17T00:28:02.699Z,81.72
2023-04-17T00:31:05.764Z,82.18
2023-04-17T00:34:09.623Z,82.37
2023-04-17T00:37:12.224Z,81.83
2023-04-17T00:40:15.329Z,82.16
2023-04-17T00:43:17.950Z,81.90
2023-04-17T00:46:20.540Z,82.35
2023-04-17T00:49:24.498Z,82.13
2023-04-17T00:52:28.792Z,82.09
2023-04-17T00:55:31.870Z,82.09
2023-04-17T00:58:34.449Z,82.22
2023-04-17T01:01:37.067Z,81.99
2023-04-17T01:04:41.007Z,82.40
2023-04-17T01:07:43.583Z,82.20
2023-04-17T01:10:46.259Z,82.40
2023-04-17T01:13:49.051Z,82.38
2023-04-17T01:16:51.633Z,82.76
2023-04-17T01:19:55.643Z,83.03
2023-04-17T01:22:58.444Z,82.89
2023-04-17T01:26:02.279Z,83.13
2023-04-17T01:29:04.796Z,83.42
2023-04-17T01:32:07.303Z,83.56
2023-04-17T01:35:10.736Z,83.59
2023-04-17T01:38:13.296Z,83.69
2023-04-17T01:41:17.136Z,83.89
2023-04-17T01:44:19.684Z,84.10
2023-04-17T01:47:22.479Z,84.31
2023-04-17T01:50:25.060Z,83.92
2023-04-17T01:53:27.641Z,84.25
2023-04-17T01:56:31.595Z,84.26
2023-04-17T01:59:34.164Z,84.25
2023-04-17T02:02:36.912Z,84.31
2023-04-17T02:05:39.610Z,84.21
2023-04-17T02:08:42.146Z,84.36
2023-04-17T02:11:46.364Z,84.53
2023-04-17T02:14:48.894Z,84.87
2023-04-17T02:17:51.649Z,84.82
2023-04-17T02:20:54.414Z,84.93
2023-04-17T02:23:57.010Z,85.02
2023-04-17T02:27:00.921Z,85.12
2023-04-17T02:30:03.683Z,85.24
2023-04-17T02:33:06.227Z,85.28
2023-04-17T02:36:09.339Z,85.47
2023-04-17T02:39:12.110Z,85.40
2023-04-17T02:42:16.116Z,85.42
2023-04-17T02:45:18.621Z,85.32
2023-04-17T02:48:21.152Z,85.39
2023-04-17T02:51:23.672Z,85.84
2023-04-17T02:54:26.268Z,85.83
2023-04-17T02:57:30.157Z,85.67
2023-04-17T03:00:32.843Z,85.89
2023-04-17T03:03:38.756Z,85.86
2023-04-17T03:06:41.993Z,86.11
2023-04-17T03:09:45.618Z,86.08
2023-04-17T03:12:49.474Z,86.18
2023-04-17T03:15:51.990Z,86.35
2023-04-17T03:18:54.555Z,86.32
2023-04-17T03:21:57.116Z,86.56
2023-04-17T03:24:59.640Z,86.59
2023-04-17T03:28:03.483Z,86.74
2023-04-17T03:31:06.417Z,86.69
2023-04-17T03:34:08.966Z,86.85
2023-04-17T03:37:11.549Z,86.94
2023-04-17T03:40:14.351Z,87.01
2023-04-17T03:43:18.359Z,87.25
2023-04-17T03:46:21.002Z,87.19
2023-04-17T03:49:23.613Z,87.00
2023-04-17T03:52:26.244Z,87.45
2023-04-17T03:55:28.814Z,87.42
2023-04-17T03:58:32.751Z,87.25
2023-04-17T04:01:38.613Z,87.45
2023-04-17T04:04:41.385Z,87.41
2023-04-17T04:07:45.174Z,87.25
2023-04-17T04:10:47.768Z,87.61
2023-04-17T04:13:51.624Z,87.54
2023-04-17T04:16:54.193Z,87.60
2023-04-17T04:19:56.760Z,87.77
2023-04-17T04:22:59.319Z,88.03
2023-04-17T04:26:02.575Z,88.04
2023-04-17T04:29:06.525Z,88.19
2023-04-17T04:32:13.582Z,88.35
2023-04-17T04:35:16.726Z,88.10
2023-04-17T04:38:19.360Z,88.24
2023-04-17T04:41:25.190Z,88.30
2023-04-17T04:44:29.070Z,87.95
2023-04-17T04:47:31.731Z,87.97
2023-04-17T04:50:34.353Z,88.03
2023-04-17T04:53:36.924Z,87.77
2023-04-17T04:56:40.046Z,87.70
2023-04-17T04:59:43.915Z,88.10
2023-04-17T05:02:46.634Z,87.82
2023-04-17T05:05:50.450Z,88.30
2023-04-17T05:08:53.004Z,88.11
2023-04-17T05:11:55.567Z,88.23
2023-04-17T05:14:59.451Z,88.46
2023-04-17T05:18:02.085Z,88.21
2023-04-17T05:21:04.889Z,88.36
2023-04-17T05:24:07.793Z,88.34
2023-04-17T05:27:10.391Z,88.60
2023-04-17T05:30:15.840Z,88.64
2023-04-17T05:33:18.409Z,88.84
2023-04-17T05:36:22.223Z,88.74
2023-04-17T05:39:24.751Z,88.59
2023-04-17T05:42:27.268Z,88.62
2023-04-17T05:45:31.263Z,88.89
2023-04-17T05:48:34.035Z,88.82
2023-04-17T05:51:36.586Z,89.20
2023-04-17T05:54:39.124Z,89.00
2023-04-17T05:57:41.673Z,88.88
2023-04-17T06:00:45.529Z,89.04
2023-04-17T06:03:48.499Z,88.98
2023-04-17T06:06:51.491Z,88.98
2023-04-17T06:09:54.083Z,88.94
2023-04-17T06:12:56.690Z,88.85
2023-04-17T06:16:00.698Z,88.74
2023-04-17T06:19:03.318Z,88.64
2023-04-17T06:22:05.954Z,88.56
2023-04-17T06:25:09.284Z,88.63
2023-04-17T06:28:11.818Z,88.59
2023-04-17T06:31:15.844Z,88.54
2023-04-17T06:34:18.469Z,88.59
2023-04-17T06:37:21.018Z,88.38
2023-04-17T06:40:23.586Z,88.57
2023-04-17T06:43:26.071Z,88.33
2023-04-17T06:46:30.032Z,88.57
2023-04-17T06:49:32.641Z,88.33
2023-04-17T06:52:35.280Z,88.38
2023-04-17T06:55:37.818Z,88.19
2023-04-17T06:58:44.487Z,88.30
2023-04-17T07:01:48.666Z,87.99
2023-04-17T07:04:51.536Z,88.19
2023-04-17T07:07:55.199Z,87.98
2023-04-17T07:10:57.776Z,87.76
2023-04-17T07:14:00.386Z,87.62
2023-04-17T07:17:04.841Z,87.29
2023-04-17T07:20:08.512Z,87.74
2023-04-17T07:23:11.131Z,87.49
2023-04-17T07:26:13.704Z,87.52
2023-04-17T07:29:16.338Z,87.52
2023-04-17T07:32:20.347Z,87.97
2023-04-17T07:35:23.264Z,87.74
2023-04-17T07:38:25.983Z,87.49
2023-04-17T07:41:28.591Z,87.13
2023-04-17T07:44:31.146Z,87.45
2023-04-17T07:47:35.088Z,87.53
2023-04-17T07:50:37.708Z,86.80
2023-04-17T07:53:40.403Z,87.14
2023-04-17T07:56:42.986Z,86.75
2023-04-17T07:59:45.646Z,86.78
2023-04-17T08:02:49.721Z,86.81
2023-04-17T08:05:53.950Z,87.01
2023-04-17T08:08:56.827Z,86.64
2023-04-17T08:11:59.350Z,86.81
2023-04-17T08:15:01.963Z,86.61
2023-04-17T08:18:06.217Z,86.61
2023-04-17T08:21:09.202Z,86.27
2023-04-17T08:24:11.790Z,86.79
2023-04-17T08:27:15.108Z,86.54
2023-04-17T08:30:19.304Z,86.57
2023-04-17T08:33:23.413Z,86.72
2023-04-17T08:36:27.037Z,86.90
2023-04-17T08:39:30.056Z,86.87
2023-04-17T08:42:33.034Z,86.90
2023-04-17T08:45:35.580Z,86.78
2023-04-17T08:48:39.435Z,86.35
2023-04-17T08:51:42.524Z,86.35
2023-04-17T08:54:45.107Z,85.98
2023-04-17T08:58:00.996Z,85.62
2023-04-17T09:01:08.717Z,85.84
2023-04-17T09:04:12.922Z,85.50
2023-04-17T09:07:15.888Z,86.08
2023-04-17T09:10:18.435Z,85.82
2023-04-17T09:13:21.867Z,85.73
2023-04-17T09:16:25.626Z,85.94
2023-04-17T09:19:29.642Z,86.10
2023-04-17T09:22:32.175Z,85.45
2023-04-17T09:25:34.734Z,85.77
2023-04-17T09:28:39.476Z,85.15
2023-04-17T09:31:42.848Z,85.07
2023-04-17T09:34:47.133Z,85.16
2023-04-17T09:37:50.756Z,84.42
2023-04-17T09:40:53.332Z,83.80
2023-04-17T09:44:00.946Z,84.03
2023-04-17T09:47:03.997Z,83.13
2023-04-17T09:50:09.836Z,82.76
2023-04-17T09:53:12.966Z,82.33
2023-04-17T09:56:15.473Z,81.57
2023-04-17T09:59:17.982Z,81.97
2023-04-17T10:02:22.553Z,81.76
2023-04-17T10:05:28.781Z,81.56
2023-04-17T10:08:32.241Z,82.20
2023-04-17T10:11:36.474Z,81.46
2023-04-17T10:14:40.088Z,82.14
2023-04-17T10:17:42.626Z,81.92
2023-04-17T10:20:48.563Z,81.05
2023-04-17T10:23:51.223Z,80.39
2023-04-17T10:26:53.792Z,79.75
2023-04-17T10:29:56.916Z,79.61
2023-04-17T10:33:22.226Z,80.00
2023-04-17T10:36:52.523Z,79.67
2023-04-17T10:40:00.676Z,79.74
2023-04-17T10:43:04.495Z,79.30
2023-04-17T10:46:10.385Z,79.93
2023-04-17T10:49:13.291Z,79.91
2023-04-17T10:52:40.116Z,79.84
2023-04-17T10:55:48.671Z,78.70
2023-04-17T10:58:57.600Z,78.78
2023-04-17T11:02:04.617Z,78.70
2023-04-17T11:05:07.529Z,78.94
2023-04-17T11:08:11.586Z,78.53
2023-04-17T11:11:14.598Z,77.75
2023-04-17T11:14:18.791Z,77.40
2023-04-17T11:17:22.307Z,77.72
2023-04-17T11:20:25.473Z,77.39
2023-04-17T11:23:34.489Z,76.33
2023-04-17T11:26:43.149Z,74.13
2023-04-17T11:29:45.777Z,73.19
2023-04-17T11:32:48.318Z,72.95
2023-04-17T11:35:52.296Z,73.33
2023-04-17T11:38:57.850Z,72.90
2023-04-17T11:42:00.569Z,72.18
2023-04-17T11:45:07.870Z,71.25
2023-04-17T11:48:11.450Z,71.11
2023-04-17T11:51:14.037Z,70.92
2023-04-17T11:54:25.840Z,70.39
2023-04-17T11:57:28.439Z,68.34
2023-04-17T12:00:31.708Z,67.93
2023-04-17T12:03:35.522Z,67.91
2023-04-17T12:06:38.597Z,67.21
2023-04-17T12:09:42.504Z,67.41
2023-04-17T12:12:45.507Z,64.59
2023-04-17T12:15:48.140Z,64.56
2023-04-17T12:18:50.760Z,64.39
2023-04-17T12:21:54.312Z,63.93
2023-04-17T12:24:58.283Z,63.29
2023-04-17T12:28:00.833Z,62.88
2023-04-17T12:31:03.962Z,62.99
2023-04-17T12:34:06.584Z,61.74
2023-04-17T12:37:09.183Z,62.14
2023-04-17T12:40:13.217Z,61.73
2023-04-17T12:43:16.031Z,61.26
2023-04-17T12:46:18.614Z,60.08
2023-04-17T12:49:23.468Z,60.53
2023-04-17T12:52:26.108Z,60.65
2023-04-17T12:55:29.972Z,59.65
2023-04-17T12:58:32.894Z,58.43
2023-04-17T13:01:35.539Z,58.89
2023-04-17T13:04:38.254Z,59.17
2023-04-17T13:07:41.093Z,58.05
2023-04-17T13:10:45.044Z,58.97
2023-04-17T13:13:47.600Z,58.97
2023-04-17T13:16:50.875Z,57.90
2023-04-17T13:19:53.697Z,57.66
2023-04-17T13:22:58.322Z,57.90
2023-04-17T13:26:02.772Z,58.22
2023-04-17T13:29:05.297Z,58.33
2023-04-17T13:32:07.892Z,57.33
2023-04-17T13:35:13.085Z,58.28
2023-04-17T13:38:15.681Z,58.78
2023-04-17T13:41:19.557Z,57.51
2023-04-17T13:44:22.149Z,56.90
2023-04-17T13:47:24.756Z,55.95
2023-04-17T13:50:27.438Z,55.59
2023-04-17T13:53:30.034Z,56.26
2023-04-17T13:56:33.953Z,57.32
2023-04-17T13:59:36.554Z,56.80
2023-04-17T14:02:39.215Z,57.40
2023-04-17T14:05:41.862Z,56.49
2023-04-17T14:08:45.100Z,56.99
2023-04-17T14:11:48.961Z,55.43
2023-04-17T14:14:51.522Z,54.86
2023-04-17T14:17:54.151Z,55.42
2023-04-17T14:20:56.857Z,56.14
2023-04-17T14:23:59.372Z,55.52
2023-04-17T14:27:03.650Z,56.00
2023-04-17T14:30:07.382Z,55.57
2023-04-17T14:33:09.917Z,55.10
2023-04-17T14:36:12.441Z,55.18
2023-04-17T14:39:15.210Z,54.90
2023-04-17T14:42:19.270Z,55.48
2023-04-17T14:45:21.776Z,56.12
2023-04-17T14:48:24.596Z,55.94
2023-04-17T14:51:28.360Z,55.71
2023-04-17T14:54:31.027Z,54.77
2023-04-17T14:57:34.937Z,55.11
2023-04-17T15:00:38.270Z,55.55
2023-04-17T15:03:41.694Z,54.75
2023-04-17T15:06:45.776Z,55.40
2023-04-17T15:09:48.292Z,54.32
2023-04-17T15:12:52.222Z,53.99
2023-04-17T15:15:55.121Z,53.11
2023-04-17T15:18:57.681Z,53.12
2023-04-17T15:22:00.223Z,52.97
2023-04-17T15:25:02.766Z,52.37
2023-04-17T15:28:06.668Z,51.45
2023-04-17T15:31:09.227Z,51.99
2023-04-17T15:34:13.416Z,51.93
2023-04-17T15:37:16.151Z,51.83
2023-04-17T15:40:18.678Z,52.59
2023-04-17T15:43:22.668Z,52.87
2023-04-17T15:46:25.206Z,52.60
2023-04-17T15:49:28.392Z,52.94
2023-04-17T15:52:30.936Z,53.53
2023-04-17T15:55:36.198Z,53.50
2023-04-17T15:58:40.069Z,52.72
2023-04-17T16:01:42.638Z,52.90
2023-04-17T16:04:45.389Z,52.67
2023-04-17T16:07:48.031Z,52.84
2023-04-17T16:10:51.128Z,52.70
2023-04-17T16:13:55.050Z,53.32
2023-04-17T16:16:59.833Z,54.19
2023-04-17T16:20:03.574Z,54.28
2023-04-17T16:23:06.133Z,56.15
2023-04-17T16:26:08.649Z,57.31
2023-04-17T16:29:12.691Z,58.36
2023-04-17T16:32:15.460Z,58.10
2023-04-17T16:35:18.208Z,59.05
2023-04-17T16:38:20.705Z,59.69
2023-04-17T16:41:23.319Z,59.92
2023-04-17T16:44:27.838Z,60.12
2023-04-17T16:47:30.438Z,60.71
2023-04-17T16:50:33.073Z,60.53
2023-04-17T16:53:35.587Z,60.40
2023-04-17T16:56:38.180Z,60.49
2023-04-17T16:59:42.062Z,60.10
2023-04-17T17:02:44.699Z,60.62
2023-04-17T17:05:47.357Z,61.08
2023-04-17T17:08:49.939Z,60.58
2023-04-17T17:11:52.520Z,61.00
2023-04-17T17:14:56.453Z,61.47
2023-04-17T17:17:58.997Z,60.67
2023-04-17T17:21:02.015Z,61.06
2023-04-17T17:24:05.003Z,61.26
2023-04-17T17:27:07.559Z,61.81
2023-04-17T17:30:12.730Z,61.90
2023-04-17T17:33:16.951Z,62.00
2023-04-17T17:36:19.524Z,62.38
2023-04-17T17:39:22.392Z,62.02
2023-04-17T17:42:25.110Z,62.78
2023-04-17T17:45:28.971Z,62.60
2023-04-17T17:48:31.531Z,63.04
2023-04-17T17:51:34.072Z,62.52
2023-04-17T17:54:37.301Z,63.33
2023-04-17T17:57:48.810Z,63.54
2023-04-17T18:00:53.688Z,63.61
2023-04-17T18:03:56.432Z,63.57
2023-04-17T18:06:59.168Z,63.79
2023-04-17T18:10:01.700Z,64.01
2023-04-17T18:13:04.308Z,64.50
2023-04-17T18:16:08.789Z,65.21
2023-04-17T18:19:11.322Z,65.23
2023-04-17T18:22:13.888Z,64.85
2023-04-17T18:25:16.626Z,64.49
2023-04-17T18:28:19.226Z,65.59
2023-04-17T18:31:25.123Z,65.65
2023-04-17T18:34:27.760Z,66.02
2023-04-17T18:37:30.291Z,66.41
2023-04-17T18:40:32.825Z,65.95
2023-04-17T18:43:35.457Z,66.52
2023-04-17T18:46:39.394Z,66.19
2023-04-17T18:49:41.920Z,66.14
2023-04-17T18:52:48.740Z,66.69
2023-04-17T18:55:53.560Z,66.67
2023-04-17T18:58:56.100Z,67.23
2023-04-17T19:02:00.191Z,67.57
2023-04-17T19:05:02.806Z,67.18
2023-04-17T19:08:05.568Z,67.50
2023-04-17T19:11:08.139Z,67.48
2023-04-17T19:14:10.847Z,67.45
2023-04-17T19:17:15.883Z,67.83
2023-04-17T19:20:18.511Z,68.22
2023-04-17T19:23:21.071Z,68.65
2023-04-17T19:26:23.559Z,68.67
2023-04-17T19:29:26.261Z,68.58
2023-04-17T19:32:31.696Z,68.95
2023-04-17T19:35:34.483Z,69.16
2023-04-17T19:38:37.068Z,69.23
2023-04-17T19:41:39.648Z,69.33
2023-04-17T19:44:42.178Z,69.50
2023-04-17T19:47:46.051Z,69.56
2023-04-17T19:50:48.671Z,69.78
2023-04-17T19:53:53.150Z,70.12
2023-04-17T19:56:55.723Z,70.04
2023-04-17T19:59:58.312Z,70.26
2023-04-17T20:03:02.446Z,70.52
2023-04-17T20:06:05.271Z,70.26
2023-04-17T20:09:07.971Z,70.45
2023-04-17T20:12:10.549Z,70.63
2023-04-17T20:15:13.129Z,70.34
2023-04-17T20:18:17.312Z,70.68
2023-04-17T20:21:19.882Z,70.32
2023-04-17T20:24:22.476Z,70.59
2023-04-17T20:27:26.456Z,70.38
2023-04-17T20:30:29.254Z,71.04
2023-04-17T20:33:33.209Z,70.72
2023-04-17T20:36:35.774Z,70.92
2023-04-17T20:39:39.230Z,70.88
2023-04-17T20:42:42.250Z,70.95
2023-04-17T20:45:44.909Z,70.85
2023-04-17T20:48:50.198Z,70.48
2023-04-17T20:51:52.811Z,70.94
2023-04-17T20:54:55.686Z,70.23
2023-04-17T20:57:58.241Z,70.84
2023-04-17T21:01:01.823Z,70.29
2023-04-17T21:04:06.028Z,70.59
2023-04-17T21:07:08.659Z,70.17
2023-04-17T21:10:11.253Z,69.90
2023-04-17T21:13:13.816Z,70.29
2023-04-17T21:16:16.402Z,70.25
2023-04-17T21:19:22.506Z,70.25
2023-04-17T21:22:25.069Z,69.77
2023-04-17T21:25:27.667Z,70.20
2023-04-17T21:28:30.299Z,70.32
2023-04-17T21:31:32.904Z,70.42
2023-04-17T21:34:36.839Z,69.60
2023-04-17T21:37:39.394Z,70.17
2023-04-17T21:40:51.122Z,70.12
2023-04-17T21:43:54.651Z,69.96
2023-04-17T21:46:57.171Z,69.30
2023-04-17T21:50:01.096Z,69.94
2023-04-17T21:53:03.610Z,69.16
2023-04-17T21:56:07.115Z,69.78
2023-04-17T21:59:10.060Z,70.09
2023-04-17T22:02:12.682Z,69.04
2023-04-17T22:05:16.631Z,68.95
2023-04-17T22:08:19.184Z,69.48
2023-04-17T22:11:21.770Z,68.73
2023-04-17T22:14:24.280Z,68.97
2023-04-17T22:17:27.005Z,68.75
2023-04-17T22:20:30.940Z,68.91
2023-04-17T22:23:52.075Z,68.83
2023-04-17T22:27:30.852Z,68.86
2023-04-17T22:31:09.586Z,69.24
2023-04-17T22:34:30.532Z,68.69
2023-04-17T22:37:51.936Z,69.34
2023-04-17T22:41:12.136Z,68.76
2023-04-17T22:44:51.007Z,69.42
2023-04-17T22:48:10.850Z,69.31
2023-04-17T22:51:49.794Z,69.41
2023-04-17T22:55:10.923Z,69.76
2023-04-17T22:58:49.715Z,70.06
2023-04-17T23:02:29.800Z,69.30
2023-04-17T23:06:08.460Z,69.48
2023-04-17T23:09:11.168Z,70.15
2023-04-17T23:12:15.105Z,70.28
2023-04-17T23:15:17.597Z,70.54
2023-04-17T23:18:20.147Z,71.49
2023-04-17T23:21:22.761Z,71.49
2023-04-17T23:24:25.767Z,71.62
2023-04-17T23:27:29.695Z,72.19
2023-04-17T23:30:32.257Z,72.11
2023-04-17T23:33:34.819Z,72.18
2023-04-17T23:36:37.433Z,71.92
2023-04-17T23:39:40.466Z,72.71
2023-04-17T23:42:44.560Z,72.69
2023-04-17T23:45:47.137Z,72.65
2023-04-17T23:48:49.678Z,73.47
2023-04-17T23:51:52.228Z,72.98
2023-04-17T23:54:54.813Z,73.00
2023-04-17T23:57:58.782Z,73.42
